Time;durP1;ratioP1;P1;durP2;ratioP2;P2;SDS_P1;SDS_P2;PMS_P1;PMS_P2;Temp;Humidity;BMP_temperature;BMP_pressure;BME280_temperature;BME280_humidity;BME280_pressure;Samples;Min_cycle;Max_cycle;Signal;HPM_P1;HPM_P2
2022/03/12 00:00:18;;;;;;;11.02;9.38;;;;;;;1.38;63.41;102677.78;2088988;28;20184;-70
2022/03/12 00:01:19;;;;;;;11.27;9.35;;;;;;;2.08;63.84;102798.56;2080085;28;20263;-70
2022/03/12 00:02:20;;;;;;;11.17;8.97;;;;;;;1.95;63.47;102769.44;2080100;28;20182;-70
2022/03/12 00:03:21;;;;;;;10.90;9.50;;;;;;;2.11;63.80;102799.84;2080507;28;20212;-70
2022/03/12 00:04:21;;;;;;;9.90;8.80;;;;;;;2.13;63.55;102801.13;2079923;28;20176;-70
2022/03/12 00:05:22;;;;;;;11.33;8.80;;;;;;;2.15;63.74;102801.59;2080427;28;20554;-70
2022/03/12 00:06:23;;;;;;;10.97;9.33;;;;;;;1.86;63.75;102760.41;2080376;28;20181;-70
2022/03/12 00:07:23;;;;;;;11.33;8.73;;;;;;;2.13;63.61;102814.00;2080547;28;20180;-69
2022/03/12 00:08:41;;;;;;;10.57;8.97;;;;;;;1.86;63.36;102773.31;2080504;28;20573;-69
2022/03/12 00:09:43;;;;;;;11.48;8.98;;;;;;;2.18;63.43;102811.91;2088166;28;20175;-70
2022/03/12 00:10:51;;;;;;;10.45;8.38;;;;;;;1.82;63.11;102753.19;2088004;28;20649;-70
2022/03/12 00:11:55;;;;;;;11.80;9.05;;;;;;;2.29;62.76;102809.63;2080434;28;20258;-70
2022/03/12 00:12:56;;;;;;;11.40;8.75;;;;;;;2.21;62.65;102794.84;2084936;28;20188;-70
2022/03/12 00:14:00;;;;;;;10.50;8.20;;;;;;;1.59;62.81;102702.56;2089286;28;20358;-70
2022/03/12 00:15:05;;;;;;;10.02;8.40;;;;;;;2.33;62.69;102813.34;2090276;28;20181;-70
2022/03/12 00:16:13;;;;;;;10.75;8.55;;;;;;;2.22;62.64;102784.69;2081473;28;20211;-69
2022/03/12 00:17:13;;;;;;;9.60;8.60;;;;;;;2.30;62.05;102789.34;2081637;28;20165;-70
2022/03/12 00:18:18;;;;;;;11.63;8.60;;;;;;;2.41;62.28;102821.53;2082088;28;20185;-70
2022/03/12 00:19:20;;;;;;;10.73;8.35;;;;;;;2.36;62.23;102818.16;2081985;28;20176;-69
2022/03/12 00:20:22;;;;;;;10.35;8.75;;;;;;;2.27;62.12;102809.94;2081951;28;20208;-70
2022/03/12 00:21:27;;;;;;;10.23;8.18;;;;;;;2.34;62.26;102850.50;2081988;28;20176;-70
2022/03/12 00:22:28;;;;;;;9.90;8.48;;;;;;;1.73;61.85;102733.25;2081346;28;20177;-70
2022/03/12 00:23:29;;;;;;;10.88;9.02;;;;;;;2.29;61.78;102810.44;2081413;28;20607;-70
2022/03/12 00:24:30;;;;;;;9.63;8.33;;;;;;;2.44;61.87;102826.34;2082224;28;20185;-70
2022/03/12 00:25:31;;;;;;;10.10;8.20;;;;;;;2.54;61.77;102826.03;2090270;28;20181;-70
2022/03/12 00:26:33;;;;;;;11.35;8.00;;;;;;;2.48;62.13;102824.59;2090172;28;20180;-70
2022/03/12 00:27:34;;;;;;;11.35;8.77;;;;;;;2.32;61.60;102817.19;2090174;28;20188;-70
2022/03/12 00:28:34;;;;;;;12.83;9.10;;;;;;;2.46;61.49;102823.31;2090255;28;20199;-69
2022/03/12 00:29:35;;;;;;;11.00;8.10;;;;;;;2.53;61.70;102835.38;2090251;28;20770;-69
2022/03/12 00:30:36;;;;;;;9.70;8.20;;;;;;;1.95;61.25;102753.03;2090271;28;20211;-70
2022/03/12 00:31:36;;;;;;;9.90;8.13;;;;;;;2.42;61.83;102827.81;2090137;28;20764;-70
2022/03/12 00:32:37;;;;;;;11.00;8.50;;;;;;;1.60;61.24;102685.81;2088818;28;20296;-70
2022/03/12 00:33:38;;;;;;;11.05;8.55;;;;;;;1.29;61.03;102643.41;2089320;28;20242;-70
2022/03/12 00:34:38;;;;;;;12.30;8.67;;;;;;;2.48;61.37;102826.50;2089456;28;20434;-70
2022/03/12 00:35:40;;;;;;;12.13;8.67;;;;;;;2.18;61.14;102792.75;2090160;28;20267;-69
2022/03/12 00:36:41;;;;;;;10.50;8.98;;;;;;;2.47;61.42;102835.84;2090077;28;20739;-70
2022/03/12 00:37:43;;;;;;;10.50;8.27;;;;;;;2.54;61.57;102842.44;2090206;28;20172;-70
2022/03/12 00:38:45;;;;;;;8.50;7.25;;;;;;;2.55;60.71;102843.22;2090144;28;20184;-70
2022/03/12 00:39:47;;;;;;;10.98;7.47;;;;;;;2.00;60.46;102765.75;2090015;28;20270;-70
2022/03/12 00:40:49;;;;;;;9.20;7.55;;;;;;;1.33;60.66;102668.94;2090015;28;20180;-69
2022/03/12 00:41:49;;;;;;;9.48;7.40;;;;;;;2.22;60.67;102853.09;2089716;28;20210;-70
2022/03/12 00:42:50;;;;;;;8.97;7.60;;;;;;;2.18;61.32;102852.94;2088984;28;20180;-70
2022/03/12 00:43:50;;;;;;;9.60;7.70;;;;;;;1.96;62.14;102850.34;2089450;28;20187;-70
2022/03/12 00:44:51;;;;;;;9.50;7.47;;;;;;;1.92;62.76;102854.88;2089939;28;20180;-70
2022/03/12 00:45:51;;;;;;;10.97;8.43;;;;;;;1.70;62.62;102821.38;2090257;28;20180;-69
2022/03/12 00:46:52;;;;;;;11.13;8.80;;;;;;;1.69;63.19;102825.25;2089978;28;20214;-70
2022/03/12 00:47:52;;;;;;;10.70;8.97;;;;;;;1.57;63.28;102803.19;2090014;28;20215;-70
2022/03/12 00:48:52;;;;;;;11.67;9.20;;;;;;;1.92;64.04;102843.09;2089808;28;20668;-70
2022/03/12 00:49:54;;;;;;;10.03;8.90;;;;;;;1.78;63.58;102828.78;2090112;28;20569;-70
2022/03/12 00:50:55;;;;;;;11.35;9.60;;;;;;;1.70;64.16;102833.09;2089776;28;20587;-70
2022/03/12 00:51:55;;;;;;;10.88;8.98;;;;;;;0.59;63.91;102673.66;2089858;28;20228;-70
2022/03/12 00:52:56;;;;;;;12.80;9.40;;;;;;;0.32;63.84;102637.59;2089466;28;20191;-70
2022/03/12 00:53:56;;;;;;;13.57;9.70;;;;;;;1.59;64.08;102820.88;2089292;28;20203;-70
2022/03/12 00:54:57;;;;;;;12.97;9.37;;;;;;;0.66;63.53;102667.69;2089843;28;20179;-70
2022/03/12 00:55:57;;;;;;;11.13;9.20;;;;;;;1.91;64.05;102847.75;2090062;28;20549;-70
2022/03/12 00:56:58;;;;;;;11.37;9.03;;;;;;;2.02;64.11;102849.09;2089733;28;20184;-69
2022/03/12 00:57:58;;;;;;;12.17;9.97;;;;;;;2.07;63.63;102846.19;2090123;28;20697;-70
2022/03/12 00:58:59;;;;;;;11.07;8.60;;;;;;;2.15;63.05;102850.03;2089965;28;20679;-70
2022/03/12 01:00:00;;;;;;;12.93;9.10;;;;;;;2.19;63.24;102846.34;2090164;28;20679;-69
2022/03/12 01:01:01;;;;;;;10.37;8.93;;;;;;;2.18;62.90;102850.22;2089752;28;20184;-70
2022/03/12 01:02:02;;;;;;;11.73;9.27;;;;;;;2.21;63.08;102855.00;2089753;28;20277;-69
2022/03/12 01:03:03;;;;;;;12.00;9.27;;;;;;;2.19;62.97;102864.66;2089320;28;20180;-70
2022/03/12 01:04:04;;;;;;;10.80;8.87;;;;;;;2.02;63.04;102815.44;2089274;28;20200;-70
2022/03/12 01:05:05;;;;;;;11.73;9.00;;;;;;;2.04;62.64;102815.91;2089903;28;20206;-70
2022/03/12 01:06:06;;;;;;;10.63;9.30;;;;;;;2.29;62.44;102858.88;2090040;28;20823;-70
2022/03/12 01:07:09;;;;;;;10.38;9.05;;;;;;;1.64;62.43;102768.78;2089874;28;20218;-70
2022/03/12 01:08:10;;;;;;;11.90;9.55;;;;;;;1.23;62.17;102689.19;2090140;28;20179;-70
2022/03/12 01:09:11;;;;;;;11.17;9.63;;;;;;;2.18;62.26;102847.47;2089824;28;20705;-70
2022/03/12 01:10:12;;;;;;;12.37;9.90;;;;;;;2.36;62.60;102860.00;2089972;28;20269;-70
2022/03/12 01:11:13;;;;;;;11.32;9.30;;;;;;;1.30;61.98;102700.44;2089142;28;20176;-70
2022/03/12 01:12:14;;;;;;;11.17;9.50;;;;;;;2.11;62.11;102849.88;2089199;28;20513;-70
2022/03/12 01:13:14;;;;;;;12.60;9.70;;;;;;;1.17;62.48;102709.59;2089290;28;20176;-70
2022/03/12 01:14:15;;;;;;;11.43;9.37;;;;;;;1.51;62.12;102801.72;2089083;28;20168;-70
2022/03/12 01:15:16;;;;;;;11.32;8.95;;;;;;;2.09;62.11;102856.78;2089854;28;20196;-70
2022/03/12 01:16:17;;;;;;;11.77;9.60;;;;;;;1.05;61.85;102686.75;2090021;28;20183;-70
2022/03/12 01:17:17;;;;;;;13.70;10.07;;;;;;;2.15;61.92;102861.78;2090002;28;20206;-70
2022/03/12 01:18:21;;;;;;;12.23;10.20;;;;;;;2.18;62.31;102863.88;2089929;28;20172;-70
2022/03/12 01:19:22;;;;;;;13.20;10.93;;;;;;;1.80;62.32;102794.53;2089859;28;20180;-70
2022/03/12 01:20:22;;;;;;;13.53;10.63;;;;;;;2.18;62.24;102861.16;2089818;28;20256;-70
2022/03/12 01:21:23;;;;;;;12.67;10.23;;;;;;;2.21;62.14;102856.97;2089830;28;20172;-70
2022/03/12 01:22:26;;;;;;;14.10;11.23;;;;;;;2.00;62.04;102837.63;2089137;28;20172;-70
2022/03/12 01:23:27;;;;;;;13.27;11.02;;;;;;;2.08;61.86;102857.91;2089752;28;20253;-70
2022/03/12 01:24:28;;;;;;;13.50;10.88;;;;;;;2.05;61.93;102864.03;2088919;28;20553;-70
2022/03/12 01:25:29;;;;;;;11.60;9.55;;;;;;;1.48;62.25;102777.75;2089827;28;20207;-70
2022/03/12 01:26:29;;;;;;;12.87;10.50;;;;;;;1.70;62.30;102813.19;2089871;28;20278;-70
2022/03/12 01:27:30;;;;;;;12.90;10.60;;;;;;;2.00;62.48;102859.50;2089118;28;20184;-70
2022/03/12 01:28:30;;;;;;;13.63;11.50;;;;;;;2.02;62.22;102865.50;2089255;28;20184;-70
2022/03/12 01:29:31;;;;;;;14.20;10.53;;;;;;;2.05;62.36;102867.56;2089814;28;20204;-70
2022/03/12 01:30:32;;;;;;;14.50;10.53;;;;;;;2.07;61.99;102864.50;2089603;28;20191;-70
2022/03/12 01:31:34;;;;;;;14.43;11.03;;;;;;;2.10;62.06;102866.63;2089598;28;20337;-70
2022/03/12 01:32:36;;;;;;;12.75;10.38;;;;;;;2.13;62.29;102864.03;2088961;28;20569;-70
2022/03/12 01:33:37;;;;;;;13.73;10.90;;;;;;;2.14;62.07;102856.63;2089765;28;20191;-70
2022/03/12 01:34:38;;;;;;;13.13;10.77;;;;;;;2.13;62.05;102852.28;2088995;28;20607;-70
2022/03/12 01:35:39;;;;;;;14.63;11.77;;;;;;;2.09;62.11;102860.34;2089775;28;20206;-70
2022/03/12 01:36:39;;;;;;;14.03;11.40;;;;;;;2.08;62.14;102864.19;2089628;28;20238;-70
2022/03/12 01:37:40;;;;;;;13.97;10.90;;;;;;;2.04;62.27;102865.97;2089540;28;20418;-70
2022/03/12 01:38:52;;;;;;;14.37;11.10;;;;;;;1.92;62.23;102854.03;2089684;28;20192;-70
2022/03/12 01:39:53;;;;;;;14.55;10.73;;;;;;;1.97;62.29;102862.91;2089839;28;20176;-70
2022/03/12 01:40:53;;;;;;;13.30;10.83;;;;;;;1.31;62.10;102783.19;2088873;28;20176;-70
2022/03/12 01:41:54;;;;;;;12.93;10.93;;;;;;;1.98;62.21;102871.91;2080712;28;20260;-70
2022/03/12 01:42:55;;;;;;;14.00;11.07;;;;;;;2.00;62.05;102873.19;2088489;28;20176;-70
2022/03/12 01:43:58;;;;;;;13.03;10.00;;;;;;;1.84;62.13;102858.38;2089012;28;20638;-70
2022/03/12 01:44:58;;;;;;;13.13;10.50;;;;;;;1.89;62.18;102871.91;2088745;28;20199;-70
2022/03/12 01:46:01;;;;;;;12.43;10.20;;;;;;;0.99;62.38;102754.34;2089102;28;20266;-70
2022/03/12 01:47:07;;;;;;;12.77;10.50;;;;;;;1.72;63.33;102871.88;2089581;28;20179;-70
2022/03/12 01:48:07;;;;;;;13.63;10.50;;;;;;;1.60;63.27;102881.81;2089677;28;20168;-70
2022/03/12 01:49:11;;;;;;;14.37;10.60;;;;;;;0.78;63.31;102758.78;2089474;28;20188;-70
2022/03/12 01:50:11;;;;;;;14.48;11.23;;;;;;;1.52;63.75;102868.91;2089665;28;20203;-70
2022/03/12 01:51:13;;;;;;;14.00;10.83;;;;;;;1.45;63.58;102871.31;2089354;28;20238;-70
2022/03/12 01:52:14;;;;;;;16.85;12.32;;;;;;;0.37;63.54;102713.81;2089317;28;20241;-70
2022/03/12 01:53:14;;;;;;;16.00;11.70;;;;;;;-0.22;63.32;102618.06;2089013;28;20719;-69
2022/03/12 01:54:21;;;;;;;15.83;12.77;;;;;;;1.15;63.62;102864.78;2088797;28;20186;-70
2022/03/12 01:55:22;;;;;;;18.20;12.55;;;;;;;1.22;64.25;102883.44;2089540;28;20245;-69
2022/03/12 01:56:28;;;;;;;17.13;13.00;;;;;;;1.13;63.79;102867.00;2089511;28;20188;-70
2022/03/12 01:57:29;;;;;;;17.80;13.32;;;;;;;0.91;64.03;102871.72;2089600;28;20190;-70
2022/03/12 01:58:30;;;;;;;16.45;12.90;;;;;;;0.82;64.49;102870.88;2089653;28;20186;-70
2022/03/12 01:59:30;;;;;;;16.87;12.97;;;;;;;0.84;64.39;102871.38;2089472;28;20183;-70
2022/03/12 02:00:46;;;;;;;17.67;13.40;;;;;;;0.84;64.44;102872.19;2089396;28;20190;-70
2022/03/12 02:01:57;;;;;;;16.13;12.85;;;;;;;0.45;64.65;102838.53;2089520;28;20179;-70
2022/03/12 02:03:01;;;;;;;17.48;13.52;;;;;;;0.39;65.12;102842.50;2089063;28;20625;-70
2022/03/12 02:04:04;;;;;;;17.42;13.25;;;;;;;-0.49;64.53;102687.13;2088951;28;20213;-70
2022/03/12 02:05:05;;;;;;;17.95;13.90;;;;;;;0.04;64.93;102786.09;2089365;28;20260;-70
2022/03/12 02:06:06;;;;;;;18.13;13.23;;;;;;;-0.69;64.66;102676.69;2089657;28;20183;-70
2022/03/12 02:07:07;;;;;;;17.70;13.50;;;;;;;0.54;64.88;102880.31;2089342;28;20190;-70
2022/03/12 02:08:13;;;;;;;18.95;14.20;;;;;;;0.54;64.91;102883.88;2089495;28;20774;-70
2022/03/12 02:09:18;;;;;;;19.65;14.23;;;;;;;0.48;65.04;102889.75;2089434;28;20180;-70
2022/03/12 02:10:20;;;;;;;16.85;13.60;;;;;;;-0.09;65.61;102803.31;2089472;28;20186;-70
2022/03/12 02:11:27;;;;;;;17.45;14.02;;;;;;;0.42;65.67;102891.00;2089377;28;20296;-70
2022/03/12 02:12:28;;;;;;;18.38;14.27;;;;;;;0.37;65.83;102889.16;2088660;28;20171;-70
2022/03/12 02:13:31;;;;;;;17.10;14.03;;;;;;;-0.47;65.98;102776.69;2089200;28;20187;-70
2022/03/12 02:14:31;;;;;;;19.20;14.90;;;;;;;-1.28;65.91;102635.28;2088628;28;20183;-70
2022/03/12 02:15:32;;;;;;;19.17;15.27;;;;;;;0.18;66.46;102890.47;2089378;28;20211;-70
2022/03/12 02:16:34;;;;;;;17.93;14.77;;;;;;;0.02;66.58;102886.47;2089425;28;20269;-70
2022/03/12 02:17:38;;;;;;;18.13;14.60;;;;;;;0.03;66.79;102890.81;2089539;28;20189;-70
2022/03/12 02:18:39;;;;;;;17.58;15.35;;;;;;;-1.38;66.88;102677.13;2089366;28;20193;-70
2022/03/12 02:19:40;;;;;;;20.88;15.55;;;;;;;-0.04;67.18;102885.78;2089346;28;20190;-70
2022/03/12 02:20:41;;;;;;;18.90;15.02;;;;;;;0.04;67.09;102884.25;2089373;28;20299;-70
2022/03/12 02:21:55;;;;;;;18.90;15.02;;;;;;;0.11;67.36;102887.38;2089340;28;20205;-70
2022/03/12 02:22:56;;;;;;;20.88;15.27;;;;;;;0.11;66.96;102890.09;2088065;28;20189;-70
2022/03/12 02:23:57;;;;;;;21.37;15.77;;;;;;;0.07;67.02;102894.53;2088108;28;20187;-70
2022/03/12 02:24:57;;;;;;;20.57;14.93;;;;;;;0.08;67.27;102891.50;2089210;28;20202;-70
2022/03/12 02:26:02;;;;;;;19.27;14.97;;;;;;;-0.54;67.14;102790.72;2088744;28;20196;-70
2022/03/12 02:27:05;;;;;;;19.92;15.60;;;;;;;0.00;67.38;102894.16;2088639;28;20608;-70
2022/03/12 02:28:17;;;;;;;20.05;15.38;;;;;;;-0.01;67.52;102901.53;2089291;28;20189;-70
2022/03/12 02:29:21;;;;;;;21.35;15.93;;;;;;;-0.07;67.59;102891.84;2088664;28;20762;-70
2022/03/12 02:30:23;;;;;;;20.73;15.93;;;;;;;-0.04;68.07;102895.88;2080706;28;20207;-70
2022/03/12 02:31:25;;;;;;;21.52;15.82;;;;;;;-0.16;67.90;102888.22;2088470;28;20189;-70
2022/03/12 02:32:26;;;;;;;20.05;16.52;;;;;;;-0.06;67.89;102901.63;2088601;28;20720;-70
2022/03/12 02:33:30;;;;;;;19.73;15.80;;;;;;;0.04;68.17;102903.31;2089253;28;20179;-70
2022/03/12 02:34:35;;;;;;;19.67;15.52;;;;;;;-0.14;67.92;102877.03;2088495;28;20189;-70
2022/03/12 02:35:35;;;;;;;19.63;15.68;;;;;;;0.07;67.59;102900.78;2089404;28;20201;-70
2022/03/12 02:36:37;;;;;;;20.13;15.90;;;;;;;0.08;67.84;102896.16;2088712;28;20274;-70
2022/03/12 02:37:42;;;;;;;17.60;14.90;;;;;;;0.05;67.53;102899.47;2089241;28;20243;-70
2022/03/12 02:38:42;;;;;;;17.98;14.82;;;;;;;0.08;67.63;102899.69;2089236;28;20195;-70
2022/03/12 02:39:43;;;;;;;18.23;14.90;;;;;;;-0.01;67.85;102887.91;2089337;28;20178;-70
2022/03/12 02:40:45;;;;;;;18.03;14.60;;;;;;;0.05;67.66;102899.47;2089137;28;20245;-70
2022/03/12 02:41:46;;;;;;;17.48;14.68;;;;;;;0.14;67.82;102890.28;2088538;28;20215;-70
2022/03/12 02:42:50;;;;;;;19.17;14.85;;;;;;;0.21;67.46;102896.09;2087761;28;20300;-70
2022/03/12 02:43:51;;;;;;;17.23;14.35;;;;;;;0.03;66.91;102872.53;2088524;28;20209;-70
2022/03/12 02:44:53;;;;;;;17.40;14.27;;;;;;;0.31;66.69;102900.53;2089046;28;20664;-70
2022/03/12 02:46:02;;;;;;;17.55;13.77;;;;;;;0.35;66.49;102907.78;2089295;28;20488;-70
2022/03/12 02:47:21;;;;;;;18.63;13.52;;;;;;;0.35;66.16;102899.59;2089192;28;20262;-70
2022/03/12 02:48:24;;;;;;;18.00;13.65;;;;;;;0.41;66.37;102898.34;2089030;28;20182;-70
2022/03/12 02:49:25;;;;;;;16.90;13.98;;;;;;;0.45;66.36;102895.81;2089113;28;20194;-70
2022/03/12 02:50:25;;;;;;;18.00;14.27;;;;;;;0.39;66.17;102883.41;2089115;28;20186;-70
2022/03/12 02:51:26;;;;;;;17.93;14.10;;;;;;;0.48;65.70;102900.66;2088958;28;20227;-70
2022/03/12 02:52:28;;;;;;;17.10;14.43;;;;;;;0.50;65.81;102904.69;2088431;28;20189;-70
2022/03/12 02:53:30;;;;;;;16.40;13.13;;;;;;;-0.04;66.03;102811.38;2089093;28;20186;-70
2022/03/12 02:54:31;;;;;;;16.60;14.02;;;;;;;0.49;65.68;102899.53;2088360;28;20186;-70
2022/03/12 02:55:34;;;;;;;17.77;14.00;;;;;;;0.15;65.63;102858.34;2089036;28;20190;-70
2022/03/12 02:56:36;;;;;;;19.42;13.80;;;;;;;0.51;65.12;102913.66;2089184;28;20191;-70
2022/03/12 02:57:37;;;;;;;19.00;14.23;;;;;;;0.49;65.15;102910.44;2089083;28;20273;-70
2022/03/12 02:58:38;;;;;;;16.00;13.43;;;;;;;0.49;65.06;102914.00;2089076;28;20237;-70
2022/03/12 02:59:43;;;;;;;16.93;13.07;;;;;;;0.47;64.84;102912.69;2089162;28;20207;-70
2022/03/12 03:00:44;;;;;;;18.85;13.88;;;;;;;0.46;64.84;102919.25;2088869;28;20195;-70
2022/03/12 03:01:44;;;;;;;17.50;14.00;;;;;;;0.45;64.63;102923.09;2089025;28;20183;-70
2022/03/12 03:02:53;;;;;;;17.87;14.30;;;;;;;0.39;64.07;102927.88;2088256;28;20182;-70
2022/03/12 03:03:54;;;;;;;16.83;14.43;;;;;;;0.27;64.28;102933.03;2088547;28;20173;-70
2022/03/12 03:04:55;;;;;;;17.80;14.38;;;;;;;0.23;64.56;102926.63;2088888;28;20194;-70
2022/03/12 03:05:55;;;;;;;19.13;15.57;;;;;;;-0.55;64.59;102803.53;2088460;28;20187;-70
2022/03/12 03:06:56;;;;;;;21.87;16.47;;;;;;;0.18;65.12;102931.38;2088392;28;20195;-70
2022/03/12 03:07:58;;;;;;;21.13;16.33;;;;;;;-0.08;65.54;102897.59;2089026;28;20263;-70
2022/03/12 03:09:00;;;;;;;23.33;16.58;;;;;;;-1.39;65.66;102691.00;2088986;28;20191;-70
2022/03/12 03:10:01;;;;;;;19.48;15.95;;;;;;;-0.43;65.96;102848.53;2089085;28;20568;-70
2022/03/12 03:11:18;;;;;;;20.43;16.60;;;;;;;0.01;65.96;102936.66;2088952;28;20186;-70
2022/03/12 03:12:20;;;;;;;20.75;16.30;;;;;;;0.06;65.99;102942.00;2088570;28;20164;-70
2022/03/12 03:13:21;;;;;;;25.58;17.33;;;;;;;0.06;66.10;102937.34;2088801;28;20183;-70
2022/03/12 03:14:26;;;;;;;20.07;15.60;;;;;;;-0.51;66.64;102860.94;2087508;28;20186;-70
2022/03/12 03:15:28;;;;;;;19.10;15.65;;;;;;;-0.61;66.72;102870.09;2087881;28;20181;-70
2022/03/12 03:16:31;;;;;;;18.88;15.20;;;;;;;-0.33;67.18;102928.09;2080714;28;20188;-70
2022/03/12 03:17:34;;;;;;;19.65;16.02;;;;;;;-0.88;67.36;102867.38;2080110;28;20267;-70
2022/03/12 03:18:38;;;;;;;19.02;14.90;;;;;;;-0.41;67.53;102943.25;2080007;28;20198;-70
2022/03/12 03:19:40;;;;;;;19.95;16.20;;;;;;;-0.34;68.02;102951.03;2080669;28;20186;-70
2022/03/12 03:20:41;;;;;;;20.15;15.77;;;;;;;-0.29;67.99;102948.97;2080419;28;20191;-70
2022/03/12 03:21:42;;;;;;;21.73;15.57;;;;;;;-0.88;67.45;102838.56;2080739;28;20709;-70
2022/03/12 03:22:42;;;;;;;17.53;15.37;;;;;;;-0.71;68.13;102872.25;2079980;28;20692;-70
2022/03/12 03:23:44;;;;;;;20.93;15.77;;;;;;;-0.33;68.08;102949.91;2080511;28;20186;-70
2022/03/12 03:24:45;;;;;;;19.23;16.67;;;;;;;-0.28;67.76;102953.34;2083552;28;20230;-70
2022/03/12 03:25:47;;;;;;;19.87;15.13;;;;;;;-0.26;67.91;102956.56;2089114;28;20248;-70
2022/03/12 03:26:49;;;;;;;20.17;15.57;;;;;;;-0.20;68.28;102963.53;2088079;28;20228;-70
2022/03/12 03:27:50;;;;;;;17.85;14.68;;;;;;;-0.31;68.30;102948.50;2088328;28;20240;-70
2022/03/12 03:28:51;;;;;;;17.93;14.50;;;;;;;-0.20;68.73;102966.25;2088814;28;20231;-70
2022/03/12 03:29:51;;;;;;;20.37;15.50;;;;;;;-0.56;68.63;102886.34;2089100;28;20357;-70
2022/03/12 03:30:52;;;;;;;19.07;16.20;;;;;;;-0.07;68.12;102959.19;2088774;28;20554;-70
2022/03/12 03:31:53;;;;;;;19.23;15.40;;;;;;;0.04;68.25;102963.28;2088443;28;20209;-70
2022/03/12 03:32:54;;;;;;;18.05;15.50;;;;;;;-0.10;67.97;102929.81;2088156;28;20175;-70
2022/03/12 03:33:54;;;;;;;19.70;15.97;;;;;;;0.18;67.41;102956.72;2088170;28;20195;-70
2022/03/12 03:34:55;;;;;;;19.70;15.17;;;;;;;0.18;67.18;102978.53;2088752;28;20194;-70
2022/03/12 03:35:55;;;;;;;17.83;15.07;;;;;;;0.11;67.15;102945.41;2088982;28;20278;-70
2022/03/12 03:36:56;;;;;;;18.63;15.47;;;;;;;-1.01;67.22;102778.34;2088737;28;20201;-70
2022/03/12 03:37:57;;;;;;;18.05;14.88;;;;;;;-0.26;66.86;102902.06;2088912;28;20460;-70
2022/03/12 03:38:58;;;;;;;18.87;14.53;;;;;;;0.33;66.89;102963.75;2088755;28;20193;-70
2022/03/12 03:39:58;;;;;;;17.87;14.40;;;;;;;-0.09;66.90;102894.06;2088918;28;20428;-70
2022/03/12 03:40:59;;;;;;;17.47;13.93;;;;;;;0.39;66.82;102963.34;2088848;28;20566;-70
2022/03/12 03:41:59;;;;;;;14.90;13.07;;;;;;;0.07;67.17;102928.03;2088062;28;20181;-70
2022/03/12 03:43:00;;;;;;;18.50;14.13;;;;;;;0.33;67.06;102967.31;2087666;28;20188;-70
2022/03/12 03:44:01;;;;;;;18.40;14.33;;;;;;;-0.74;66.99;102807.50;2088191;28;20486;-70
2022/03/12 03:45:02;;;;;;;19.30;14.90;;;;;;;-0.10;67.00;102887.00;2088908;28;20193;-70
2022/03/12 03:46:03;;;;;;;18.47;13.87;;;;;;;0.56;66.27;102974.38;2088910;28;20183;-70
2022/03/12 03:47:03;;;;;;;18.30;14.30;;;;;;;0.57;66.29;102967.03;2088411;28;20200;-70
2022/03/12 03:48:04;;;;;;;17.17;14.80;;;;;;;0.58;66.17;102972.16;2088895;28;20241;-70
2022/03/12 03:49:06;;;;;;;18.43;13.97;;;;;;;0.52;66.15;102969.88;2090363;28;20198;-70
2022/03/12 03:50:08;;;;;;;16.27;13.32;;;;;;;0.45;66.11;102955.81;2089952;28;20182;-70
2022/03/12 03:51:09;;;;;;;18.70;13.65;;;;;;;0.52;66.12;102969.88;2089735;28;20234;-70
2022/03/12 03:52:10;;;;;;;17.57;14.27;;;;;;;0.50;66.30;102975.63;2090486;28;20219;-70
2022/03/12 03:53:14;;;;;;;15.27;12.60;;;;;;;0.09;66.56;102912.19;2089804;28;20171;-70
2022/03/12 03:54:15;;;;;;;17.85;13.15;;;;;;;0.17;66.53;102927.81;2089555;28;20186;-70
2022/03/12 03:55:15;;;;;;;15.00;12.97;;;;;;;0.39;66.90;102970.69;2090528;28;20264;-70
2022/03/12 03:56:17;;;;;;;18.53;13.37;;;;;;;0.21;66.92;102956.09;2090567;28;20189;-70
2022/03/12 03:57:19;;;;;;;17.23;12.95;;;;;;;0.27;66.89;102979.41;2090487;28;20179;-70
2022/03/12 03:58:19;;;;;;;17.02;13.55;;;;;;;0.18;67.52;102972.28;2090501;28;20188;-70
2022/03/12 03:59:20;;;;;;;17.20;14.00;;;;;;;0.34;67.10;102977.09;2090487;28;20645;-70
2022/03/12 04:00:24;;;;;;;17.93;14.37;;;;;;;-0.18;66.94;102886.91;2090429;28;20179;-70
2022/03/12 04:01:26;;;;;;;18.63;13.50;;;;;;;0.15;66.97;102929.25;2090359;28;20592;-70
2022/03/12 04:02:26;;;;;;;16.60;13.50;;;;;;;0.49;66.84;102975.94;2089504;28;20196;-70
2022/03/12 04:03:34;;;;;;;14.97;13.00;;;;;;;0.41;66.87;102974.75;2090405;28;20202;-70
2022/03/12 04:04:36;;;;;;;16.02;12.93;;;;;;;0.48;67.02;102982.50;2089908;28;20171;-70
2022/03/12 04:05:38;;;;;;;17.17;13.77;;;;;;;0.39;66.82;102989.78;2090425;28;20734;-70
2022/03/12 04:06:39;;;;;;;16.67;13.85;;;;;;;0.23;67.06;102986.63;2090395;28;20187;-70
2022/03/12 04:07:40;;;;;;;15.70;13.37;;;;;;;0.24;67.78;102990.94;2090389;28;20187;-70
2022/03/12 04:08:42;;;;;;;17.67;13.47;;;;;;;0.30;67.67;102989.72;2090236;28;20279;-70
2022/03/12 04:09:42;;;;;;;18.30;14.15;;;;;;;0.32;67.50;102994.88;2090485;28;20723;-70
2022/03/12 04:10:43;;;;;;;16.70;13.37;;;;;;;0.34;67.62;102990.72;2090364;28;20548;-70
2022/03/12 04:11:43;;;;;;;14.67;12.27;;;;;;;0.43;67.24;102990.81;2090386;28;20247;-70
2022/03/12 04:12:44;;;;;;;17.83;13.83;;;;;;;0.41;67.21;102982.91;2089454;28;20283;-70
2022/03/12 04:13:46;;;;;;;16.23;13.10;;;;;;;0.44;67.50;102984.22;2090019;28;20179;-70
2022/03/12 04:14:47;;;;;;;17.10;13.38;;;;;;;0.56;67.37;102995.41;2090058;28;20186;-70
2022/03/12 04:15:49;;;;;;;17.83;13.27;;;;;;;0.63;67.43;102998.53;2090417;28;20219;-70
2022/03/12 04:16:50;;;;;;;19.40;14.65;;;;;;;0.37;67.08;102953.84;2089418;28;20190;-70
2022/03/12 04:17:52;;;;;;;16.13;12.13;;;;;;;0.05;66.64;102910.38;2089918;28;20676;-70
2022/03/12 04:18:53;;;;;;;15.85;12.27;;;;;;;0.35;66.82;102956.06;2090196;28;20248;-70
2022/03/12 04:19:54;;;;;;;16.27;12.70;;;;;;;0.73;66.68;103009.22;2090324;28;20187;-70
2022/03/12 04:20:54;;;;;;;15.43;12.33;;;;;;;0.77;66.36;103008.28;2090174;28;20187;-70
2022/03/12 04:21:58;;;;;;;14.10;11.33;;;;;;;0.70;66.14;102999.72;2090151;28;20262;-70
2022/03/12 04:22:58;;;;;;;13.50;11.10;;;;;;;0.69;66.84;103006.28;2089680;28;20183;-70
2022/03/12 04:23:59;;;;;;;14.50;11.73;;;;;;;0.76;66.79;103016.75;2089757;28;20202;-70
2022/03/12 04:24:59;;;;;;;13.43;11.10;;;;;;;0.78;66.32;103018.06;2090043;28;20248;-70
2022/03/12 04:26:00;;;;;;;14.13;10.73;;;;;;;-0.31;66.62;102828.59;2090344;28;20776;-70
2022/03/12 04:27:02;;;;;;;15.30;11.47;;;;;;;0.89;66.32;103010.47;2090246;28;20555;-70
2022/03/12 04:28:02;;;;;;;13.38;11.10;;;;;;;0.63;66.11;102984.88;2090277;28;20194;-70
2022/03/12 04:29:08;;;;;;;14.40;11.27;;;;;;;0.72;65.94;102996.69;2090153;28;20568;-70
2022/03/12 04:30:13;;;;;;;14.55;11.70;;;;;;;0.27;66.07;102922.13;2090335;28;20164;-70
2022/03/12 04:31:14;;;;;;;14.30;11.90;;;;;;;0.98;65.80;103014.84;2090143;28;20668;-70
2022/03/12 04:32:14;;;;;;;14.83;11.73;;;;;;;0.89;65.33;103022.16;2089962;28;20572;-70
2022/03/12 04:33:16;;;;;;;15.53;12.20;;;;;;;0.49;66.03;102967.75;2089002;28;20676;-70
2022/03/12 04:34:17;;;;;;;21.58;15.07;;;;;;;0.78;65.48;103028.19;2088417;28;20238;-70
2022/03/12 04:35:18;;;;;;;24.52;15.60;;;;;;;0.74;65.26;103019.81;2090244;28;20183;-70
2022/03/12 04:36:19;;;;;;;24.17;16.08;;;;;;;0.58;65.81;103015.03;2090168;28;20183;-70
2022/03/12 04:37:19;;;;;;;21.43;14.73;;;;;;;0.09;66.09;102925.03;2089348;28;20206;-70
2022/03/12 04:38:20;;;;;;;20.47;14.30;;;;;;;0.73;66.03;103025.59;2089581;28;20179;-70
2022/03/12 04:39:21;;;;;;;15.97;12.33;;;;;;;0.63;65.59;103006.72;2090186;28;20206;-70
2022/03/12 04:40:25;;;;;;;16.03;12.67;;;;;;;0.72;65.60;103030.22;2090198;28;20186;-70
2022/03/12 04:41:30;;;;;;;14.70;11.75;;;;;;;0.44;65.56;102992.41;2090126;28;20179;-70
2022/03/12 04:42:31;;;;;;;13.45;10.85;;;;;;;-0.38;65.54;102884.63;2089383;28;20170;-70
2022/03/12 04:43:32;;;;;;;14.03;11.40;;;;;;;0.45;65.93;103018.56;2089949;28;20186;-70
2022/03/12 04:44:33;;;;;;;12.50;10.30;;;;;;;0.25;65.68;103019.81;2089417;28;20194;-70
2022/03/12 04:45:34;;;;;;;11.65;9.63;;;;;;;0.48;65.73;103040.59;2089429;28;20225;-70